createdAt,value
2023-10-06T00:00:41.739Z,5.59
2023-10-06T00:01:44.066Z,5.56
2023-10-06T00:02:46.646Z,5.51
2023-10-06T00:03:49.581Z,5.50
2023-10-06T00:04:53.008Z,5.45
2023-10-06T00:05:56.645Z,5.44
2023-10-06T00:07:07.216Z,5.46
2023-10-06T00:08:12.116Z,5.45
2023-10-06T00:09:29.568Z,5.47
2023-10-06T00:10:33.389Z,5.47
2023-10-06T00:11:35.027Z,5.49
2023-10-06T00:12:36.562Z,5.55
2023-10-06T00:13:39.255Z,5.54
2023-10-06T00:14:41.948Z,5.54
2023-10-06T00:15:45.123Z,5.56
2023-10-06T00:16:47.554Z,5.54
2023-10-06T00:17:50.378Z,5.51
2023-10-06T00:18:54.105Z,5.49
2023-10-06T00:19:58.037Z,5.50
2023-10-06T00:21:08.495Z,5.52
2023-10-06T00:22:18.942Z,5.51
2023-10-06T00:23:23.930Z,5.48
2023-10-06T00:24:27.130Z,5.49
2023-10-06T00:25:29.069Z,5.57
2023-10-06T00:26:30.559Z,5.54
2023-10-06T00:27:32.504Z,5.51
2023-10-06T00:28:34.060Z,5.52
2023-10-06T00:29:38.042Z,5.54
2023-10-06T00:30:40.125Z,5.57
2023-10-06T00:31:42.262Z,5.57
2023-10-06T00:32:43.935Z,5.56
2023-10-06T00:33:46.301Z,5.51
2023-10-06T00:34:50.091Z,5.49
2023-10-06T00:35:51.678Z,5.44
2023-10-06T00:36:53.856Z,5.43
2023-10-06T00:37:58.854Z,5.40
2023-10-06T00:39:00.356Z,5.40
2023-10-06T00:40:01.927Z,5.36
2023-10-06T00:41:07.786Z,5.39
2023-10-06T00:42:09.724Z,5.40
2023-10-06T00:43:16.918Z,5.45
2023-10-06T00:44:22.676Z,5.48
2023-10-06T00:45:27.266Z,5.51
2023-10-06T00:46:28.780Z,5.51
2023-10-06T00:47:39.718Z,5.50
2023-10-06T00:48:43.166Z,5.47
2023-10-06T00:49:45.755Z,5.46
2023-10-06T00:50:47.459Z,5.45
2023-10-06T00:51:48.942Z,5.42
2023-10-06T00:52:51.772Z,5.39
2023-10-06T00:53:57.373Z,5.40
2023-10-06T00:54:59.636Z,5.39
2023-10-06T00:56:04.282Z,5.41
2023-10-06T00:57:11.933Z,5.40
2023-10-06T00:58:13.763Z,5.39
2023-10-06T00:59:15.279Z,5.40
2023-10-06T01:00:22.064Z,5.41
2023-10-06T01:01:24.824Z,5.42
2023-10-06T01:02:27.116Z,5.45
2023-10-06T01:03:28.751Z,5.42
2023-10-06T01:04:36.013Z,5.40
2023-10-06T01:05:39.586Z,5.39
2023-10-06T01:06:43.619Z,5.36
2023-10-06T01:07:48.234Z,5.34
2023-10-06T01:08:56.900Z,5.36
2023-10-06T01:10:00.464Z,5.34
2023-10-06T01:11:18.354Z,5.31
2023-10-06T01:12:21.105Z,5.26
2023-10-06T01:13:23.818Z,5.25
2023-10-06T01:14:27.998Z,5.24
2023-10-06T01:15:31.035Z,5.26
2023-10-06T01:16:36.362Z,5.28
2023-10-06T01:17:38.285Z,5.29
2023-10-06T01:18:42.295Z,5.28
2023-10-06T01:19:50.792Z,5.30
2023-10-06T01:20:52.520Z,5.30
2023-10-06T01:21:55.595Z,5.29
2023-10-06T01:22:57.667Z,5.28
2023-10-06T01:23:59.538Z,5.24
2023-10-06T01:25:04.233Z,5.23
2023-10-06T01:26:05.688Z,5.20
2023-10-06T01:27:07.494Z,5.18
2023-10-06T01:28:13.732Z,5.17
2023-10-06T01:29:15.509Z,5.15
2023-10-06T01:30:20.440Z,5.16
2023-10-06T01:31:21.985Z,5.15
2023-10-06T01:32:23.495Z,5.14
2023-10-06T01:33:26.137Z,5.15
2023-10-06T01:34:28.393Z,5.13
2023-10-06T01:35:34.777Z,5.13
2023-10-06T01:36:39.552Z,5.13
2023-10-06T01:37:49.365Z,5.13
2023-10-06T01:38:51.058Z,5.17
2023-10-06T01:39:52.773Z,5.20
2023-10-06T01:40:55.189Z,5.20
2023-10-06T01:41:57.078Z,5.21
2023-10-06T01:42:59.110Z,5.19
2023-10-06T01:44:01.712Z,5.19
2023-10-06T01:45:14.852Z,5.20
2023-10-06T01:46:16.380Z,5.19
2023-10-06T01:47:19.555Z,5.24
2023-10-06T01:48:21.125Z,5.24
2023-10-06T01:49:23.267Z,5.23
2023-10-06T01:50:28.086Z,5.25
2023-10-06T01:51:29.555Z,5.24
2023-10-06T01:52:31.648Z,5.22
2023-10-06T01:53:40.122Z,5.23
2023-10-06T01:54:45.981Z,5.21
2023-10-06T01:55:54.048Z,5.22
2023-10-06T01:56:55.792Z,5.20
2023-10-06T01:57:58.143Z,5.17
2023-10-06T01:59:00.090Z,5.18
2023-10-06T02:00:02.517Z,5.15
2023-10-06T02:01:19.713Z,5.14
2023-10-06T02:02:25.625Z,5.10
2023-10-06T02:03:27.660Z,5.07
2023-10-06T02:04:41.197Z,5.04
2023-10-06T02:05:43.131Z,5.01
2023-10-06T02:06:46.196Z,5.01
2023-10-06T02:07:48.209Z,4.97
2023-10-06T02:08:52.539Z,4.96
2023-10-06T02:09:54.141Z,4.93
2023-10-06T02:10:56.681Z,4.93
2023-10-06T02:11:58.449Z,4.93
2023-10-06T02:13:00.035Z,4.93
2023-10-06T02:14:06.054Z,4.95
2023-10-06T02:15:11.676Z,4.93
2023-10-06T02:16:13.179Z,4.95
2023-10-06T02:17:14.684Z,4.96
2023-10-06T02:18:16.470Z,4.99
2023-10-06T02:19:18.077Z,5.00
2023-10-06T02:20:25.654Z,4.99
2023-10-06T02:21:30.058Z,4.97
2023-10-06T02:22:31.638Z,4.99
2023-10-06T02:23:38.327Z,4.99
2023-10-06T02:24:40.531Z,4.99
2023-10-06T02:25:42.313Z,4.97
2023-10-06T02:26:46.009Z,4.96
2023-10-06T02:27:51.650Z,4.89
2023-10-06T02:28:55.590Z,4.87
2023-10-06T02:29:57.798Z,4.84
2023-10-06T02:31:04.629Z,4.82
2023-10-06T02:32:10.118Z,4.76
2023-10-06T02:33:12.367Z,4.74
2023-10-06T02:34:27.931Z,4.80
2023-10-06T02:35:29.599Z,4.87
2023-10-06T02:36:32.254Z,4.90
2023-10-06T02:37:33.971Z,4.89
2023-10-06T02:38:47.825Z,4.85
2023-10-06T02:39:49.327Z,4.81
2023-10-06T02:40:50.809Z,4.76
2023-10-06T02:41:58.354Z,4.75
2023-10-06T02:43:01.365Z,4.74
2023-10-06T02:44:08.492Z,4.74
2023-10-06T02:45:10.068Z,4.73
2023-10-06T02:46:11.863Z,4.74
2023-10-06T02:47:15.154Z,4.72
2023-10-06T02:48:23.694Z,4.68
2023-10-06T02:49:36.494Z,4.65
2023-10-06T02:50:38.159Z,4.62
2023-10-06T02:51:48.748Z,4.55
2023-10-06T02:52:54.655Z,4.51
2023-10-06T02:54:18.725Z,4.52
2023-10-06T02:55:21.060Z,4.48
2023-10-06T02:56:29.708Z,4.51
2023-10-06T02:57:39.243Z,4.50
2023-10-06T02:58:42.228Z,4.52
2023-10-06T02:59:44.239Z,4.51
2023-10-06T03:00:51.348Z,4.52
2023-10-06T03:01:56.994Z,4.54
2023-10-06T03:03:13.347Z,4.56
2023-10-06T03:04:18.371Z,4.62
2023-10-06T03:05:20.205Z,4.63
2023-10-06T03:06:21.707Z,4.62
2023-10-06T03:07:23.699Z,4.63
2023-10-06T03:08:29.128Z,4.63
2023-10-06T03:09:39.034Z,4.62
2023-10-06T03:10:44.816Z,4.63
2023-10-06T03:11:50.568Z,4.63
2023-10-06T03:12:53.390Z,4.65
2023-10-06T03:13:59.631Z,4.65
2023-10-06T03:15:02.608Z,4.66
2023-10-06T03:16:11.506Z,4.71
2023-10-06T03:17:15.029Z,4.68
2023-10-06T03:18:17.988Z,4.71
2023-10-06T03:19:25.850Z,4.72
2023-10-06T03:20:34.678Z,4.70
2023-10-06T03:21:40.889Z,4.71
2023-10-06T03:22:44.170Z,4.69
2023-10-06T03:23:46.809Z,4.67
2023-10-06T03:24:59.210Z,4.69
2023-10-06T03:26:05.323Z,4.71
2023-10-06T03:27:13.597Z,4.71
2023-10-06T03:28:18.898Z,4.72
2023-10-06T03:29:29.408Z,4.72
2023-10-06T03:30:35.748Z,4.72
2023-10-06T03:31:46.726Z,4.72
2023-10-06T03:32:59.267Z,4.72
2023-10-06T03:34:01.499Z,4.72
2023-10-06T03:35:23.379Z,4.69
2023-10-06T03:36:38.552Z,4.64
2023-10-06T03:37:53.331Z,4.61
2023-10-06T03:39:06.906Z,4.62
2023-10-06T03:40:14.365Z,4.56
2023-10-06T03:41:26.014Z,4.55
2023-10-06T03:42:28.901Z,4.53
2023-10-06T03:43:48.883Z,4.54
2023-10-06T03:45:05.848Z,4.51
2023-10-06T03:46:11.014Z,4.50
2023-10-06T03:47:12.518Z,4.49
2023-10-06T03:48:14.143Z,4.50
2023-10-06T03:49:19.374Z,4.50
2023-10-06T03:50:21.309Z,4.49
2023-10-06T03:51:22.838Z,4.47
2023-10-06T03:52:24.310Z,4.47
2023-10-06T03:53:25.736Z,4.46
2023-10-06T03:54:27.207Z,4.47
2023-10-06T03:55:29.822Z,4.45
2023-10-06T03:56:32.114Z,4.45
2023-10-06T03:57:33.547Z,4.46
2023-10-06T03:58:34.998Z,4.47
2023-10-06T03:59:36.800Z,4.47
2023-10-06T04:00:48.646Z,4.48
2023-10-06T04:01:52.563Z,4.50
2023-10-06T04:02:54.268Z,4.52
2023-10-06T04:03:59.546Z,4.52
2023-10-06T04:05:06.807Z,4.55
2023-10-06T04:06:13.763Z,4.48
2023-10-06T04:07:15.242Z,4.46
2023-10-06T04:08:24.139Z,4.46
2023-10-06T04:09:29.384Z,4.44
2023-10-06T04:10:34.513Z,4.48
2023-10-06T04:11:36.044Z,4.48
2023-10-06T04:12:37.465Z,4.42
2023-10-06T04:13:40.224Z,4.40
2023-10-06T04:14:42.848Z,4.38
2023-10-06T04:15:49.946Z,4.34
2023-10-06T04:16:51.867Z,4.29
2023-10-06T04:17:53.475Z,4.28
2023-10-06T04:18:55.013Z,4.23
2023-10-06T04:19:56.606Z,4.22
2023-10-06T04:20:58.157Z,4.22
2023-10-06T04:21:59.599Z,4.21
2023-10-06T04:23:03.307Z,4.19
2023-10-06T04:24:05.277Z,4.18
2023-10-06T04:25:11.201Z,4.15
2023-10-06T04:26:16.185Z,4.13
2023-10-06T04:27:17.935Z,4.15
2023-10-06T04:28:20.713Z,4.16
2023-10-06T04:29:27.003Z,4.22
2023-10-06T04:30:31.314Z,4.19
2023-10-06T04:31:33.945Z,4.15
2023-10-06T04:32:35.505Z,4.14
2023-10-06T04:33:38.963Z,4.12
2023-10-06T04:34:41.911Z,4.11
2023-10-06T04:35:56.798Z,4.13
2023-10-06T04:36:58.544Z,4.12
2023-10-06T04:38:07.206Z,4.11
2023-10-06T04:39:12.462Z,4.08
2023-10-06T04:40:22.725Z,4.09
2023-10-06T04:41:24.243Z,4.08
2023-10-06T04:42:25.708Z,4.08
2023-10-06T04:44:29.621Z,4.11
2023-10-06T04:45:32.953Z,4.11
2023-10-06T04:46:36.226Z,4.11
2023-10-06T04:47:41.488Z,4.09
2023-10-06T04:48:43.111Z,4.09
2023-10-06T04:49:44.592Z,4.10
2023-10-06T04:50:53.010Z,4.11
2023-10-06T04:51:54.554Z,4.11
2023-10-06T04:52:56.473Z,4.13
2023-10-06T04:53:58.046Z,4.12
2023-10-06T04:54:59.798Z,4.11
2023-10-06T04:56:03.946Z,4.10
2023-10-06T04:57:05.397Z,4.11
2023-10-06T04:58:09.742Z,4.10
2023-10-06T04:59:12.660Z,4.08
2023-10-06T05:00:21.516Z,4.05
2023-10-06T05:01:23.002Z,4.06
2023-10-06T05:02:25.357Z,4.06
2023-10-06T05:03:27.978Z,4.07
2023-10-06T05:04:29.557Z,4.06
2023-10-06T05:05:35.066Z,4.10
2023-10-06T05:06:36.941Z,4.12
2023-10-06T05:07:39.385Z,4.13
2023-10-06T05:08:42.102Z,4.14
2023-10-06T05:09:43.603Z,4.16
2023-10-06T05:10:45.140Z,4.20
2023-10-06T05:11:47.203Z,4.21
2023-10-06T05:12:49.682Z,4.23
2023-10-06T05:13:53.885Z,4.31
2023-10-06T05:14:58.276Z,4.30
2023-10-06T05:16:01.217Z,4.29
2023-10-06T05:17:02.811Z,4.31
2023-10-06T05:18:06.589Z,4.32
2023-10-06T05:19:09.116Z,4.33
2023-10-06T05:20:20.515Z,4.35
2023-10-06T05:21:22.073Z,4.41
2023-10-06T05:22:23.585Z,4.47
2023-10-06T05:23:25.057Z,4.54
2023-10-06T05:24:26.937Z,4.59
2023-10-06T05:25:30.525Z,4.66
2023-10-06T05:26:32.018Z,4.74
2023-10-06T05:27:35.193Z,4.77
2023-10-06T05:28:38.323Z,4.80
2023-10-06T05:29:39.819Z,4.77
2023-10-06T05:30:43.080Z,4.74
2023-10-06T05:31:45.021Z,4.68
2023-10-06T05:32:46.678Z,4.66
2023-10-06T05:33:48.418Z,4.67
2023-10-06T05:34:50.661Z,4.63
2023-10-06T05:35:52.990Z,4.62
2023-10-06T05:36:55.749Z,4.59
2023-10-06T05:37:58.662Z,4.57
2023-10-06T05:39:04.065Z,4.56
2023-10-06T05:40:05.951Z,4.57
2023-10-06T05:41:12.536Z,4.59
2023-10-06T05:42:14.740Z,4.58
2023-10-06T05:43:19.651Z,4.60
2023-10-06T05:44:22.547Z,4.60
2023-10-06T05:45:24.828Z,4.62
2023-10-06T05:46:26.366Z,4.64
2023-10-06T05:47:29.755Z,4.67
2023-10-06T05:48:31.819Z,4.75
2023-10-06T05:49:33.923Z,4.80
2023-10-06T05:50:36.985Z,4.86
2023-10-06T05:51:39.915Z,4.92
2023-10-06T05:52:41.459Z,4.93
2023-10-06T05:53:44.988Z,4.98
2023-10-06T05:54:47.287Z,5.02
2023-10-06T05:55:50.977Z,5.06
2023-10-06T05:56:54.399Z,5.11
2023-10-06T05:57:57.178Z,5.15
2023-10-06T05:58:58.801Z,5.20
2023-10-06T06:00:02.170Z,5.22
2023-10-06T06:01:14.110Z,5.23
2023-10-06T06:02:17.037Z,5.25
2023-10-06T06:03:22.018Z,5.28
2023-10-06T06:04:28.421Z,5.30
2023-10-06T06:05:31.167Z,5.33
2023-10-06T06:06:37.174Z,5.36
2023-10-06T06:07:38.688Z,5.47
2023-10-06T06:08:41.562Z,5.53
2023-10-06T06:09:43.377Z,5.58
2023-10-06T06:10:46.386Z,5.53
2023-10-06T06:11:47.906Z,5.50
2023-10-06T06:12:49.360Z,5.51
2023-10-06T06:14:02.320Z,5.53
2023-10-06T06:15:09.641Z,5.58
2023-10-06T06:16:11.714Z,5.58
2023-10-06T06:17:13.354Z,5.60
2023-10-06T06:18:15.210Z,5.62
2023-10-06T06:19:16.733Z,5.65
2023-10-06T06:20:22.664Z,5.70
2023-10-06T06:21:26.107Z,5.65
2023-10-06T06:22:30.780Z,5.70
2023-10-06T06:23:34.715Z,5.72
2023-10-06T06:24:39.090Z,5.76
2023-10-06T06:25:41.868Z,5.78
2023-10-06T06:26:44.531Z,5.86
2023-10-06T06:27:46.420Z,5.91
2023-10-06T06:28:47.864Z,5.94
2023-10-06T06:29:50.929Z,5.99
2023-10-06T06:30:52.725Z,6.09
2023-10-06T06:31:54.331Z,6.14
2023-10-06T06:32:55.990Z,6.24
2023-10-06T06:33:58.585Z,6.32
2023-10-06T06:35:00.364Z,6.33
2023-10-06T06:36:02.138Z,6.38
2023-10-06T06:37:03.895Z,6.51
2023-10-06T06:38:08.443Z,6.59
2023-10-06T06:39:11.765Z,6.66
2023-10-06T06:40:14.362Z,6.69
2023-10-06T06:41:15.914Z,6.78
2023-10-06T06:42:18.157Z,6.84
2023-10-06T06:43:21.188Z,6.91
2023-10-06T06:44:22.718Z,6.95
2023-10-06T06:45:29.776Z,7.01
2023-10-06T06:46:31.625Z,7.09
2023-10-06T06:47:33.341Z,7.16
2023-10-06T06:48:36.363Z,7.19
2023-10-06T06:49:38.142Z,7.22
2023-10-06T06:50:43.974Z,7.28
2023-10-06T06:51:45.619Z,7.37
2023-10-06T06:52:49.737Z,7.41
2023-10-06T06:53:51.176Z,7.46
2023-10-06T06:54:52.658Z,7.55
2023-10-06T06:55:54.715Z,7.64
2023-10-06T06:56:56.254Z,7.61
2023-10-06T06:58:01.542Z,7.72
2023-10-06T06:59:03.112Z,7.69
2023-10-06T07:00:10.947Z,7.70
2023-10-06T07:01:15.828Z,7.81
2023-10-06T07:02:17.811Z,7.89
2023-10-06T07:03:19.310Z,7.97
2023-10-06T07:04:20.724Z,8.04
2023-10-06T07:05:23.897Z,8.10
2023-10-06T07:06:27.389Z,8.16
2023-10-06T07:07:28.899Z,8.17
2023-10-06T07:08:30.387Z,8.27
2023-10-06T07:09:31.824Z,8.32
2023-10-06T07:10:34.232Z,8.29
2023-10-06T07:11:35.699Z,8.16
2023-10-06T07:12:37.482Z,8.18
2023-10-06T07:13:39.266Z,8.19
2023-10-06T07:14:40.706Z,8.18
2023-10-06T07:15:42.880Z,8.21
2023-10-06T07:16:45.005Z,8.29
2023-10-06T07:17:50.637Z,8.36
2023-10-06T07:18:52.149Z,8.46
2023-10-06T07:19:53.628Z,8.55
2023-10-06T07:20:55.081Z,8.63
2023-10-06T07:21:56.571Z,8.74
2023-10-06T07:23:02.826Z,8.80
2023-10-06T07:24:04.717Z,8.89
2023-10-06T07:25:06.394Z,8.97
2023-10-06T07:26:11.968Z,9.06
2023-10-06T07:27:14.160Z,9.13
2023-10-06T07:28:15.675Z,9.10
2023-10-06T07:29:17.132Z,9.11
2023-10-06T07:30:23.174Z,9.15
2023-10-06T07:31:26.457Z,9.24
2023-10-06T07:32:28.237Z,9.32
2023-10-06T07:33:29.742Z,9.34
2023-10-06T07:34:31.244Z,9.38
2023-10-06T07:35:44.403Z,9.51
2023-10-06T07:36:46.089Z,9.65
2023-10-06T07:37:51.079Z,9.77
2023-10-06T07:38:53.525Z,9.88
2023-10-06T07:39:54.984Z,10.02
2023-10-06T07:41:00.115Z,10.13
2023-10-06T07:42:02.089Z,10.17
2023-10-06T07:43:06.262Z,10.14
2023-10-06T07:44:07.990Z,10.25
2023-10-06T07:45:10.223Z,10.38
2023-10-06T07:46:12.386Z,10.59
2023-10-06T07:47:14.300Z,10.64
2023-10-06T07:48:15.944Z,10.69
2023-10-06T07:49:17.399Z,10.61
2023-10-06T07:50:19.039Z,10.63
2023-10-06T07:51:20.931Z,10.73
2023-10-06T07:52:22.964Z,10.78
2023-10-06T07:53:25.065Z,10.76
2023-10-06T07:54:27.682Z,10.80
2023-10-06T07:55:29.163Z,10.91
2023-10-06T07:56:31.467Z,11.04
2023-10-06T07:57:34.196Z,11.07
2023-10-06T07:58:39.061Z,11.20
2023-10-06T07:59:40.812Z,11.20
2023-10-06T08:00:43.263Z,11.33
2023-10-06T08:01:45.178Z,11.35
2023-10-06T08:02:47.047Z,11.36
2023-10-06T08:03:48.744Z,11.55
2023-10-06T08:04:52.304Z,11.55
2023-10-06T08:05:53.724Z,11.65
2023-10-06T08:06:55.235Z,11.53
2023-10-06T08:07:59.245Z,11.57
2023-10-06T08:09:01.208Z,11.74
2023-10-06T08:10:04.551Z,11.65
2023-10-06T08:11:07.380Z,11.79
2023-10-06T08:12:09.394Z,11.76
2023-10-06T08:13:11.754Z,11.88
2023-10-06T08:14:14.571Z,12.02
2023-10-06T08:15:19.853Z,11.88
2023-10-06T08:16:21.387Z,11.97
2023-10-06T08:17:22.898Z,12.08
2023-10-06T08:18:25.479Z,12.13
2023-10-06T08:19:27.257Z,12.19
2023-10-06T08:20:30.638Z,12.32
2023-10-06T08:21:32.534Z,12.36
2023-10-06T08:22:35.194Z,12.29
2023-10-06T08:23:37.107Z,12.47
2023-10-06T08:24:39.570Z,12.50
2023-10-06T08:26:47.299Z,12.80
2023-10-06T08:27:51.398Z,12.73
2023-10-06T08:28:52.996Z,12.85
2023-10-06T08:29:54.507Z,12.93
2023-10-06T08:30:56.120Z,13.08
2023-10-06T08:31:59.106Z,13.00
2023-10-06T08:33:00.724Z,13.03
2023-10-06T08:34:06.774Z,13.03
2023-10-06T08:35:14.280Z,13.05
2023-10-06T08:36:15.962Z,13.19
2023-10-06T08:37:17.736Z,12.81
2023-10-06T08:38:19.522Z,13.11
2023-10-06T08:39:21.832Z,13.19
2023-10-06T08:40:28.084Z,13.27
2023-10-06T08:41:44.802Z,13.29
2023-10-06T08:42:50.838Z,13.20
2023-10-06T08:43:52.975Z,13.34
2023-10-06T08:44:54.872Z,13.36
2023-10-06T08:46:00.918Z,13.62
2023-10-06T08:47:16.254Z,13.68
2023-10-06T08:48:26.678Z,13.71
2023-10-06T08:49:28.879Z,13.79
2023-10-06T08:50:32.592Z,13.76
2023-10-06T08:51:34.394Z,13.78
2023-10-06T08:52:38.083Z,13.78
2023-10-06T08:53:41.638Z,13.90
2023-10-06T08:54:43.646Z,13.72
2023-10-06T08:55:45.499Z,13.89
2023-10-06T08:56:48.051Z,14.12
2023-10-06T08:57:51.882Z,14.24
2023-10-06T08:58:54.301Z,14.21
2023-10-06T08:59:57.763Z,14.39
2023-10-06T09:01:00.768Z,14.24
2023-10-06T09:02:02.543Z,14.33
2023-10-06T09:03:12.168Z,14.26
2023-10-06T09:04:14.082Z,14.61
2023-10-06T09:05:15.839Z,14.70
2023-10-06T09:06:17.390Z,14.82
2023-10-06T09:07:21.233Z,14.92
2023-10-06T09:08:22.870Z,14.91
2023-10-06T09:09:27.624Z,15.00
2023-10-06T09:10:32.411Z,14.79
2023-10-06T09:11:41.052Z,14.85
2023-10-06T09:12:43.935Z,14.79
2023-10-06T09:13:46.737Z,14.85
2023-10-06T09:14:55.453Z,15.01
2023-10-06T09:16:09.466Z,15.15
2023-10-06T09:17:12.398Z,15.05
2023-10-06T09:18:22.951Z,15.20
2023-10-06T09:19:24.577Z,15.07
2023-10-06T09:20:38.369Z,15.20
2023-10-06T09:22:03.512Z,15.36
2023-10-06T09:23:05.339Z,15.27
2023-10-06T09:24:20.832Z,15.19
2023-10-06T09:25:22.744Z,15.26
2023-10-06T09:26:30.745Z,15.18
2023-10-06T09:27:33.231Z,15.21
2023-10-06T09:28:34.972Z,15.25
2023-10-06T09:29:39.340Z,15.42
2023-10-06T09:30:51.315Z,15.43
2023-10-06T09:31:52.995Z,15.35
2023-10-06T09:33:06.033Z,15.53
2023-10-06T09:34:10.731Z,15.70
2023-10-06T09:35:23.676Z,15.89
2023-10-06T09:36:42.622Z,15.94
2023-10-06T09:37:46.368Z,16.15
2023-10-06T09:38:48.955Z,16.39
2023-10-06T09:40:11.398Z,16.33
2023-10-06T09:41:13.143Z,16.32
2023-10-06T09:42:16.596Z,16.42
2023-10-06T09:43:21.091Z,16.30
2023-10-06T09:44:24.579Z,16.24
2023-10-06T09:45:30.152Z,16.27
2023-10-06T09:46:36.854Z,16.41
2023-10-06T09:47:46.540Z,16.40
2023-10-06T09:48:51.804Z,16.35
2023-10-06T09:49:54.100Z,16.23
2023-10-06T09:50:55.903Z,16.10
2023-10-06T09:52:02.333Z,16.08
2023-10-06T09:53:04.668Z,16.15
2023-10-06T09:54:10.788Z,16.53
2023-10-06T09:55:12.877Z,16.65
2023-10-06T09:56:17.323Z,16.71
2023-10-06T09:57:19.052Z,16.85
2023-10-06T09:58:23.357Z,16.90
2023-10-06T09:59:28.158Z,16.85
2023-10-06T10:00:31.220Z,16.85
2023-10-06T10:01:35.667Z,16.58
2023-10-06T10:02:41.590Z,16.71
2023-10-06T10:03:44.297Z,16.82
2023-10-06T10:04:47.606Z,17.06
2023-10-06T10:05:50.045Z,17.34
2023-10-06T10:06:52.891Z,17.49
2023-10-06T10:07:55.322Z,17.48
2023-10-06T10:08:56.974Z,17.64
2023-10-06T10:09:58.925Z,17.84
2023-10-06T10:11:08.990Z,17.78
2023-10-06T10:12:28.263Z,17.67
2023-10-06T10:13:51.490Z,17.90
2023-10-06T10:15:39.198Z,18.01
2023-10-06T10:17:08.166Z,17.86
2023-10-06T10:18:34.941Z,17.91
2023-10-06T10:19:37.675Z,18.07
2023-10-06T10:20:39.610Z,18.05
2023-10-06T10:21:42.975Z,18.04
2023-10-06T10:22:44.848Z,17.98
2023-10-06T10:23:46.378Z,18.06
2023-10-06T10:25:52.932Z,17.94
2023-10-06T10:26:55.596Z,18.02
2023-10-06T10:28:28.387Z,17.99
2023-10-06T10:29:31.199Z,17.83
2023-10-06T10:30:50.741Z,17.71
2023-10-06T10:32:01.384Z,17.95
2023-10-06T10:33:08.383Z,17.79
2023-10-06T10:34:24.950Z,17.78
2023-10-06T10:35:27.119Z,17.92
2023-10-06T10:36:28.737Z,18.02
2023-10-06T10:37:32.010Z,17.78
2023-10-06T10:38:34.256Z,17.61
2023-10-06T10:39:51.889Z,17.91
2023-10-06T10:40:53.360Z,18.17
2023-10-06T10:41:59.350Z,18.38
2023-10-06T10:43:06.750Z,18.03
2023-10-06T10:44:25.208Z,17.79
2023-10-06T10:45:35.901Z,18.14
2023-10-06T10:46:53.994Z,18.09
2023-10-06T10:47:58.416Z,18.21
2023-10-06T10:49:01.436Z,18.21
2023-10-06T10:50:04.486Z,18.37
2023-10-06T10:51:13.605Z,18.13
2023-10-06T10:52:15.517Z,18.16
2023-10-06T10:53:24.692Z,18.28
2023-10-06T10:54:32.863Z,18.59
2023-10-06T10:55:35.975Z,18.41
2023-10-06T10:56:38.078Z,18.49
2023-10-06T10:57:45.616Z,18.51
2023-10-06T10:58:49.146Z,18.10
2023-10-06T11:00:08.871Z,18.31
2023-10-06T11:01:34.389Z,18.17
2023-10-06T11:02:45.773Z,18.34
2023-10-06T11:04:18.921Z,18.38
2023-10-06T11:05:22.012Z,18.52
2023-10-06T11:06:24.186Z,18.69
2023-10-06T11:07:25.680Z,18.67
2023-10-06T11:08:39.665Z,18.63
2023-10-06T11:09:42.106Z,18.74
2023-10-06T11:10:43.637Z,18.70
2023-10-06T11:11:45.151Z,18.74
2023-10-06T11:12:46.867Z,18.88
2023-10-06T11:14:03.376Z,18.79
2023-10-06T11:15:17.594Z,18.99
2023-10-06T11:16:19.334Z,18.92
2023-10-06T11:17:25.779Z,18.54
2023-10-06T11:18:36.077Z,18.58
2023-10-06T11:19:39.233Z,18.65
2023-10-06T11:20:41.198Z,18.88
2023-10-06T11:21:48.253Z,18.90
2023-10-06T11:22:55.245Z,18.82
2023-10-06T11:23:57.583Z,18.68
2023-10-06T11:25:04.162Z,18.55
2023-10-06T11:26:07.375Z,18.53
2023-10-06T11:27:24.766Z,18.67
2023-10-06T11:28:41.939Z,18.69
2023-10-06T11:29:46.765Z,18.35
2023-10-06T11:30:49.033Z,18.63
2023-10-06T11:31:51.881Z,18.75
2023-10-06T11:32:57.992Z,18.60
2023-10-06T11:33:59.618Z,18.81
2023-10-06T11:35:01.205Z,18.85
2023-10-06T11:36:02.814Z,18.95
2023-10-06T11:37:06.289Z,18.86
2023-10-06T11:38:13.155Z,18.84
2023-10-06T11:39:15.611Z,18.67
2023-10-06T11:40:17.486Z,18.91
2023-10-06T11:41:23.506Z,19.10
2023-10-06T11:42:25.151Z,19.22
2023-10-06T11:43:26.716Z,19.20
2023-10-06T11:44:40.274Z,19.28
2023-10-06T11:45:43.583Z,19.32
2023-10-06T11:46:52.931Z,19.02
2023-10-06T11:47:55.696Z,19.05
2023-10-06T11:49:10.968Z,19.24
2023-10-06T11:50:25.837Z,19.24
2023-10-06T11:51:29.163Z,19.28
2023-10-06T11:52:33.585Z,19.45
2023-10-06T11:53:40.052Z,19.36
2023-10-06T11:54:42.111Z,19.46
2023-10-06T11:55:43.790Z,19.44
2023-10-06T11:56:53.116Z,19.35
2023-10-06T11:57:55.221Z,19.37
2023-10-06T11:58:56.710Z,19.43
2023-10-06T11:59:58.478Z,19.60
2023-10-06T12:01:00.038Z,19.43
2023-10-06T12:02:10.654Z,19.71
2023-10-06T12:03:13.085Z,19.67
2023-10-06T12:04:33.885Z,19.57
2023-10-06T12:05:37.145Z,19.27
2023-10-06T12:06:39.975Z,19.27
2023-10-06T12:07:42.409Z,19.32
2023-10-06T12:08:47.142Z,19.35
2023-10-06T12:09:49.813Z,19.02
2023-10-06T12:10:52.766Z,19.33
2023-10-06T12:11:58.665Z,19.43
2023-10-06T12:13:00.781Z,19.35
2023-10-06T12:14:04.295Z,19.10
2023-10-06T12:15:07.428Z,19.13
2023-10-06T12:16:13.757Z,19.32
2023-10-06T12:17:16.369Z,19.34
2023-10-06T12:18:18.029Z,19.31
2023-10-06T12:19:19.479Z,19.41
2023-10-06T12:20:21.117Z,19.60
2023-10-06T12:21:22.782Z,19.63
2023-10-06T12:22:40.731Z,19.89
2023-10-06T12:23:43.628Z,19.80
2023-10-06T12:24:47.213Z,19.97
2023-10-06T12:25:48.689Z,19.79
2023-10-06T12:26:50.236Z,19.56
2023-10-06T12:27:52.312Z,19.55
2023-10-06T12:28:55.699Z,19.61
2023-10-06T12:29:57.480Z,19.64
2023-10-06T12:30:59.157Z,19.43
2023-10-06T12:32:03.018Z,19.33
2023-10-06T12:33:06.651Z,19.30
2023-10-06T12:34:09.498Z,19.06
2023-10-06T12:35:11.305Z,19.28
2023-10-06T12:36:13.824Z,19.22
2023-10-06T12:37:16.915Z,19.20
2023-10-06T12:38:18.417Z,19.31
2023-10-06T12:39:34.358Z,19.22
2023-10-06T12:40:35.851Z,19.08
2023-10-06T12:41:40.142Z,19.16
2023-10-06T12:42:44.968Z,19.38
2023-10-06T12:43:48.599Z,19.36
2023-10-06T12:44:50.420Z,19.32
2023-10-06T12:45:51.841Z,19.28
2023-10-06T12:46:53.349Z,19.44
2023-10-06T12:47:54.853Z,19.36
2023-10-06T12:48:56.440Z,19.33
2023-10-06T12:50:06.169Z,19.47
2023-10-06T12:51:12.591Z,19.41
2023-10-06T12:52:14.366Z,19.67
2023-10-06T12:53:17.558Z,19.75
2023-10-06T12:54:20.436Z,19.66
2023-10-06T12:55:28.428Z,19.66
2023-10-06T12:56:30.019Z,19.95
2023-10-06T12:57:35.391Z,19.93
2023-10-06T12:58:36.906Z,19.86
2023-10-06T12:59:38.346Z,19.86
2023-10-06T13:00:39.969Z,19.81
2023-10-06T13:01:41.590Z,19.66
2023-10-06T13:02:43.531Z,19.69
2023-10-06T13:03:45.353Z,19.54
2023-10-06T13:04:46.957Z,19.49
2023-10-06T13:05:48.991Z,19.63
2023-10-06T13:06:50.934Z,19.63
2023-10-06T13:07:52.836Z,19.65
2023-10-06T13:08:54.340Z,19.94
2023-10-06T13:09:55.845Z,19.99
2023-10-06T13:10:57.446Z,19.95
2023-10-06T13:12:00.077Z,19.94
2023-10-06T13:13:07.470Z,19.95
2023-10-06T13:14:09.317Z,20.02
2023-10-06T13:15:18.701Z,20.16
2023-10-06T13:16:20.355Z,19.83
2023-10-06T13:17:25.453Z,19.91
2023-10-06T13:18:27.726Z,19.99
2023-10-06T13:19:29.220Z,19.89
2023-10-06T13:20:30.835Z,19.89
2023-10-06T13:21:32.415Z,19.87
2023-10-06T13:22:38.507Z,19.69
2023-10-06T13:23:40.226Z,19.84
2023-10-06T13:24:41.968Z,19.80
2023-10-06T13:25:46.770Z,19.99
2023-10-06T13:26:48.302Z,20.12
2023-10-06T13:27:49.827Z,20.15
2023-10-06T13:28:54.523Z,20.19
2023-10-06T13:29:56.480Z,20.29
2023-10-06T13:30:58.279Z,20.20
2023-10-06T13:31:59.787Z,20.15
2023-10-06T13:33:01.777Z,20.42
2023-10-06T13:34:03.907Z,20.36
2023-10-06T13:35:12.808Z,20.39
2023-10-06T13:36:15.857Z,20.37
2023-10-06T13:37:17.523Z,20.42
2023-10-06T13:38:20.698Z,20.24
2023-10-06T13:39:26.496Z,20.39
2023-10-06T13:40:30.192Z,20.57
2023-10-06T13:41:31.681Z,20.54
2023-10-06T13:42:33.204Z,20.67
2023-10-06T13:43:34.802Z,20.45
2023-10-06T13:44:36.843Z,20.13
2023-10-06T13:45:46.227Z,20.13
2023-10-06T13:46:48.529Z,20.09
2023-10-06T13:47:56.797Z,20.10
2023-10-06T13:48:58.706Z,20.13
2023-10-06T13:50:00.286Z,20.00
2023-10-06T13:51:03.333Z,20.12
2023-10-06T13:52:04.904Z,19.85
2023-10-06T13:53:06.697Z,19.84
2023-10-06T13:54:08.380Z,19.93
2023-10-06T13:55:12.082Z,19.68
2023-10-06T13:56:13.751Z,19.54
2023-10-06T13:57:15.251Z,19.42
2023-10-06T13:58:16.819Z,19.43
2023-10-06T13:59:19.332Z,19.23
2023-10-06T14:00:39.978Z,19.23
2023-10-06T14:01:42.293Z,19.06
2023-10-06T14:02:43.906Z,19.20
2023-10-06T14:03:45.752Z,19.12
2023-10-06T14:04:47.362Z,19.06
2023-10-06T14:05:56.936Z,19.16
2023-10-06T14:06:58.628Z,19.22
2023-10-06T14:08:05.492Z,19.21
2023-10-06T14:09:07.148Z,19.29